Thursday, July 24, 2014
14:51 UTC
  |  Log In   |  Register Free
Airport Search:

Comanche County-City Airport
(KMKN)

Comanche County-City Airport Diagram
No Airport Diagram Available

FAA data valid effective May 29, 2014 until July 24, 2014 (unless otherwise noted).

 
 
 
 
 
 
 
 
 
 
 
 
 
 

Current Aviation Weather for Comanche County-City Airport (KMKN)

The most recent METAR observation for KMKN was updated at: 1335 UTC
METAR Summary (Translated METAR)
KMKN
241335Z AUTO 10003KT 10SM SCT060 25/21 A3010 RMK AO2 T02460209
KBWD
(19.7 nm SW from KMKN)
241335Z AUTO 00000KT 5SM HZ CLR 25/20 A3010 RMK AO2
TAF
No TAF information found within 50 nm of KMKN
  Airport Weather Conditions for KMKN

 Current Weather at MKN
76° F
Partly Cloudy
East winds at 3.5 mph
MKN NOAA Radar

Pressure: 30.10 in
Humidity: 80%
Wind: East at 3.5 MPH (3 KT)
Dew Point: 69.6°F
Visibility: 10.00 mi


Airport Weather Forecast for KMKN

Translated METAR and TAF for KMKN
Translated METAR for KMKN (1444 UTC 24 July 2014)
found at http://aviationweather.gov/adds/metars/
 
METAR text: KMKN 241335Z AUTO 10003KT 10SM SCT060 25/21 A3010 RMK AO2 T02460209
Conditions at: KMKN (COMANCHE , TX, US) observed 1335 UTC 24 July 2014
Temperature: 24.6°C (76°F)
Dewpoint: 20.9°C (70°F) [RH = 80%]
Pressure (altimeter): 30.10 inches Hg (1019.4 mb)
Winds: from the E (100 degrees) at 3 MPH (3 knots; 1.6 m/s)
Visibility: 10 or more miles (16+ km)
Ceiling: at least 12,000 feet AGL
Clouds: scattered clouds at 6000 feet AGL
Weather: automated observation with no human augmentation;
there may or may not be significant weather present at this time
Translated TAF for KMKN

There is no translated TAF available for this airport

Find All Airport Services Find A Hotel Find A Rental Car Find A Golf Course Find A Restaurant $100 Hamburger



FBO's on the Field
FBO Company Facility Photos Services Transportation Aviation Fuel Prices: Prices include tax
Catering Weather Repair Courtesy Rental Type 100LL JetA JetA+ MOGAS 8087
 
Comanche County/City Airport

This FBO has not yet been rated
FS:Avfuel
Last Updated: Jul-14
Login to update fuel prices
SS:
Contact Comanche County/City AirportMore FBO Information
 
Add another FBO Facility Photos Catering Weather Repair Courtesy Rental Type 100LL JetA JetA+ MOGAS 8087
Services Transportation Aviation Fuel Prices: Prices include tax


GlobalAir.com Airport Resource Center model-print
model-print
model-print
model-print